Accueil
METAR-TAF:

METAR-TAF

Aéroports :

Aéroport de Dakhla

Dakhla, Maroc

latitude: 23-43-05N, longitude: 015-55-55W, altitude: 11 m

METAR: absent

Heure: 09:45 (08:45 UTC)

Prévision

Le bulletin a été fait il y a 3 heures et 45 minutes, à 05:00 UTC
Prévision valable du 29 à 06 UTC au 30 à 12 UTC
Vent 16 kt de nord
Visibilité: 8000 m

TAF: GMMH 290500Z 2906/3012 01016KT 8000 NSC

Observations et prévisions météorologiques de plus de 4000 aéroports (messages METAR et TAF).

Les stations disponibles sont représentées par des disques jaunes et rouges sur la carte.

Passer la souris dessus pour voir le nom de la station.

Cliquer dessus pour voir les observations et prévisions météorologiques.

Pour changer de carte: cliquez sur les boutons verts avec une croix noire pour zoomer, sur le bouton vert avec un tiret pour effectuer un zoom arrière, ou sur les flèches vertes pour les cartes adjacentes.


METAR-TAF: